Time;durP1;ratioP1;P1;durP2;ratioP2;P2;SDS_P1;SDS_P2;PMS_P1;PMS_P2;Temp;Humidity;BMP_temperature;BMP_pressure;BME280_temperature;BME280_humidity;BME280_pressure;Samples;Min_cycle;Max_cycle;Signal;HPM_P1;HPM_P2
2021/08/13 00:00:23;;;;;;;20.33;11.77;;;;;;;19.26;100.00;96158.97;1029667;28;20030;-71
2021/08/13 00:00:53;;;;;;;19.88;11.43;;;;;;;19.26;100.00;96156.31;1027830;28;20055;-68
2021/08/13 00:01:23;;;;;;;16.95;10.70;;;;;;;19.29;100.00;96158.38;1027196;28;20567;-71
2021/08/13 00:01:54;;;;;;;18.10;11.50;;;;;;;19.27;100.00;96150.69;1030170;28;20018;-70
2021/08/13 00:02:24;;;;;;;15.02;11.40;;;;;;;19.30;100.00;96157.28;1035058;28;20030;-70
2021/08/13 00:02:55;;;;;;;17.23;10.90;;;;;;;19.29;100.00;96156.50;1031842;28;20067;-71
2021/08/13 00:03:25;;;;;;;19.77;11.52;;;;;;;19.28;100.00;96154.13;1034978;28;20030;-71
2021/08/13 00:03:56;;;;;;;14.90;10.57;;;;;;;19.27;100.00;96163.19;1034973;28;20021;-70
2021/08/13 00:04:26;;;;;;;16.05;11.77;;;;;;;19.20;100.00;96152.22;1037110;28;20037;-71
2021/08/13 00:04:56;;;;;;;17.63;11.82;;;;;;;19.16;100.00;96145.97;1035029;28;20032;-71
2021/08/13 00:05:27;;;;;;;18.05;10.30;;;;;;;19.20;100.00;96162.88;1030990;28;20484;-70
2021/08/13 00:05:57;;;;;;;14.07;10.88;;;;;;;19.18;100.00;96162.38;1026290;28;20509;-71
2021/08/13 00:06:28;;;;;;;17.05;10.88;;;;;;;19.17;100.00;96156.28;1026906;28;20027;-70
2021/08/13 00:06:58;;;;;;;15.45;11.25;;;;;;;19.14;100.00;96161.44;1030240;28;20030;-70
2021/08/13 00:07:29;;;;;;;15.93;10.90;;;;;;;19.07;100.00;96153.88;1030113;28;20484;-71
2021/08/13 00:07:59;;;;;;;16.48;11.73;;;;;;;19.10;100.00;96157.81;1034405;28;20518;-71
2021/08/13 00:08:29;;;;;;;14.93;11.25;;;;;;;19.10;100.00;96160.47;1034968;28;20830;-71
2021/08/13 00:09:00;;;;;;;17.50;11.38;;;;;;;19.06;100.00;96150.44;1035003;28;20430;-71
2021/08/13 00:09:30;;;;;;;19.17;11.15;;;;;;;19.12;100.00;96160.97;1026316;28;20035;-70
2021/08/13 00:10:01;;;;;;;14.70;10.32;;;;;;;19.13;100.00;96162.53;1018900;28;20027;-71
2021/08/13 00:10:31;;;;;;;16.75;11.30;;;;;;;19.15;100.00;96161.13;1026858;28;20564;-69
2021/08/13 00:11:02;;;;;;;14.38;11.57;;;;;;;19.04;100.00;96149.19;1026891;28;20022;-71
2021/08/13 00:11:35;;;;;;;16.58;11.60;;;;;;;19.08;100.00;96156.25;1031084;28;20033;-69
2021/08/13 00:12:05;;;;;;;16.77;11.52;;;;;;;19.10;100.00;96153.28;1038200;28;20068;-71
2021/08/13 00:12:36;;;;;;;18.27;11.05;;;;;;;19.14;100.00;96164.09;1026857;28;20130;-70
2021/08/13 00:13:06;;;;;;;17.40;11.00;;;;;;;19.12;100.00;96160.97;1022801;28;20512;-70
2021/08/13 00:13:37;;;;;;;15.05;11.30;;;;;;;19.13;100.00;96160.66;1026857;28;20035;-71
2021/08/13 00:14:07;;;;;;;18.15;11.10;;;;;;;19.10;100.00;96163.91;1030946;28;20030;-71
2021/08/13 00:14:38;;;;;;;16.65;11.10;;;;;;;19.10;100.00;96160.47;1034720;28;20028;-71
2021/08/13 00:15:09;;;;;;;15.82;11.52;;;;;;;19.13;100.00;96165.19;1034955;28;20021;-70
2021/08/13 00:15:40;;;;;;;15.38;11.50;;;;;;;19.08;100.00;96158.13;1035044;28;20026;-70
2021/08/13 00:16:10;;;;;;;18.25;11.10;;;;;;;19.13;100.00;96163.31;1029951;28;20030;-71
2021/08/13 00:16:41;;;;;;;15.27;10.82;;;;;;;19.16;100.00;96157.38;1019154;29;20030;-71
2021/08/13 00:17:11;;;;;;;13.68;10.95;;;;;;;19.17;100.00;96171.47;1018846;29;20020;-70
2021/08/13 00:17:41;;;;;;;14.50;11.27;;;;;;;19.16;100.00;96161.91;1022993;29;20035;-71
2021/08/13 00:18:12;;;;;;;13.85;10.52;;;;;;;19.16;100.00;96164.56;1022511;28;20023;-71
2021/08/13 00:18:42;;;;;;;14.20;10.40;;;;;;;19.16;100.00;96162.69;1026862;28;20031;-71
2021/08/13 00:19:13;;;;;;;18.60;10.95;;;;;;;19.16;100.00;96167.25;1030867;28;20038;-70
2021/08/13 00:19:43;;;;;;;16.50;11.35;;;;;;;19.18;100.00;96165.03;1033107;28;20026;-71
2021/08/13 00:20:14;;;;;;;15.75;11.30;;;;;;;19.19;100.00;96166.63;1030710;28;20034;-70
2021/08/13 00:20:44;;;;;;;13.85;11.50;;;;;;;19.17;100.00;96171.47;1026845;28;20023;-70
2021/08/13 00:21:15;;;;;;;15.95;11.35;;;;;;;19.22;100.00;96172.13;1026372;28;20132;-71
2021/08/13 00:21:45;;;;;;;18.27;11.90;;;;;;;19.24;100.00;96174.47;1022279;28;20070;-71
2021/08/13 00:22:16;;;;;;;15.40;11.73;;;;;;;19.24;100.00;96171.81;1022819;28;20027;-69
2021/08/13 00:22:47;;;;;;;21.55;11.93;;;;;;;19.24;100.00;96169.13;1026893;28;20543;-71
2021/08/13 00:23:18;;;;;;;16.15;11.55;;;;;;;19.25;100.00;96176.84;1030532;28;20464;-71
2021/08/13 00:23:48;;;;;;;15.43;11.20;;;;;;;19.17;100.00;96166.91;1030886;28;20023;-71
2021/08/13 00:24:19;;;;;;;19.00;11.77;;;;;;;19.26;100.00;96174.94;1027050;28;20027;-70
2021/08/13 00:24:51;;;;;;;15.70;11.38;;;;;;;19.27;100.00;96173.84;1026017;28;20423;-71
2021/08/13 00:25:21;;;;;;;17.38;11.60;;;;;;;19.26;100.00;96173.06;1018886;29;20088;-69
2021/08/13 00:25:52;;;;;;;14.20;11.48;;;;;;;19.25;100.00;96173.38;1019551;28;20051;-70
2021/08/13 00:26:22;;;;;;;16.38;11.60;;;;;;;19.20;100.00;96168.19;1023659;28;20023;-70
2021/08/13 00:26:52;;;;;;;19.17;11.75;;;;;;;19.26;100.00;96169.63;1026856;28;20595;-71
2021/08/13 00:27:23;;;;;;;19.67;10.95;;;;;;;19.27;100.00;96177.28;1026931;28;20775;-70
2021/08/13 00:27:53;;;;;;;19.65;12.02;;;;;;;19.27;100.00;96176.50;1026856;28;20026;-70
2021/08/13 00:28:24;;;;;;;15.98;11.48;;;;;;;19.27;100.00;96179.16;1030219;28;20113;-70
2021/08/13 00:28:55;;;;;;;16.52;11.23;;;;;;;19.24;100.00;96174.47;1026781;28;20078;-72
2021/08/13 00:29:25;;;;;;;19.15;11.32;;;;;;;19.31;100.00;96182.78;1026782;28;20030;-70
2021/08/13 00:29:56;;;;;;;17.02;11.93;;;;;;;19.34;100.00;96179.50;1026375;28;20027;-71
2021/08/13 00:30:26;;;;;;;12.88;10.90;;;;;;;19.37;100.00;96180.78;1030819;28;20034;-70
2021/08/13 00:30:56;;;;;;;16.23;11.68;;;;;;;19.38;100.00;96177.00;1030904;28;20069;-70
2021/08/13 00:31:28;;;;;;;18.23;11.68;;;;;;;19.39;100.00;96174.06;1021833;29;20039;-70
2021/08/13 00:31:58;;;;;;;17.23;10.45;;;;;;;19.41;100.00;96179.84;1022443;28;20514;-70
2021/08/13 00:32:28;;;;;;;15.07;11.05;;;;;;;19.41;100.00;96177.19;1026794;28;20022;-70
2021/08/13 00:32:59;;;;;;;18.23;11.23;;;;;;;19.37;100.00;96170.91;1027156;28;20023;-70
2021/08/13 00:33:29;;;;;;;19.17;11.68;;;;;;;19.42;100.00;96176.09;1038469;28;20089;-71
2021/08/13 00:34:00;;;;;;;19.85;11.98;;;;;;;19.44;100.00;96181.88;1039046;28;20025;-69
2021/08/13 00:34:30;;;;;;;20.05;11.27;;;;;;;19.45;100.00;96177.34;1038993;28;20021;-71
2021/08/13 00:35:01;;;;;;;16.90;10.32;;;;;;;19.44;100.00;96178.44;1034487;28;20464;-71
2021/08/13 00:35:31;;;;;;;16.45;11.07;;;;;;;19.42;100.00;96181.44;1034941;28;20014;-70
2021/08/13 00:36:02;;;;;;;15.48;10.80;;;;;;;19.45;100.00;96183.47;1030818;28;20015;-71
2021/08/13 00:36:32;;;;;;;14.15;11.55;;;;;;;19.48;100.00;96185.53;1030126;28;20015;-71
2021/08/13 00:37:03;;;;;;;17.30;10.65;;;;;;;19.48;100.00;96190.84;1026828;28;20019;-71
2021/08/13 00:37:33;;;;;;;15.98;11.57;;;;;;;19.48;100.00;96182.88;1026826;28;20031;-71
2021/08/13 00:38:04;;;;;;;14.70;11.40;;;;;;;19.50;100.00;96183.31;1030502;28;20030;-70
2021/08/13 00:38:34;;;;;;;16.38;11.07;;;;;;;19.47;100.00;96183.16;1030066;28;20026;-70
2021/08/13 00:39:05;;;;;;;18.55;11.45;;;;;;;19.48;100.00;96190.03;1030680;28;20133;-71
2021/08/13 00:39:35;;;;;;;21.25;12.35;;;;;;;19.46;100.00;96185.03;1026565;28;20069;-71
2021/08/13 00:40:07;;;;;;;15.50;11.25;;;;;;;19.47;100.00;96191.94;1020506;28;20042;-70
2021/08/13 00:40:37;;;;;;;16.50;11.90;;;;;;;19.45;100.00;96186.16;1022861;29;20019;-71
2021/08/13 00:41:08;;;;;;;16.52;11.43;;;;;;;19.43;100.00;96188.31;1026811;28;20035;-71
2021/08/13 00:41:38;;;;;;;14.48;11.13;;;;;;;19.43;100.00;96183.00;1027119;28;20039;-71
2021/08/13 00:42:08;;;;;;;18.58;10.93;;;;;;;19.36;100.00;96187.19;1030758;28;20508;-71
2021/08/13 00:42:39;;;;;;;14.73;11.15;;;;;;;19.34;100.00;96179.50;1027123;28;20038;-70
2021/08/13 00:43:09;;;;;;;16.75;10.90;;;;;;;19.33;100.00;96182.50;1034923;28;20022;-71
2021/08/13 00:43:40;;;;;;;16.63;11.20;;;;;;;19.38;100.00;96195.66;1031042;28;20463;-68
2021/08/13 00:44:10;;;;;;;17.60;11.55;;;;;;;19.37;100.00;96199.41;1026513;28;20035;-70
2021/08/13 00:44:41;;;;;;;19.65;10.82;;;;;;;19.38;100.00;96196.44;1026906;28;20039;-70
2021/08/13 00:45:11;;;;;;;19.30;11.25;;;;;;;19.37;100.00;96202.06;1022792;29;20075;-70
2021/08/13 00:45:41;;;;;;;21.95;10.70;;;;;;;19.38;100.00;96196.44;1022594;29;20034;-70
2021/08/13 00:46:12;;;;;;;15.63;11.70;;;;;;;19.37;100.00;96205.50;1022990;29;20038;-71
2021/08/13 00:46:43;;;;;;;19.40;10.88;;;;;;;19.40;100.00;96206.78;1019243;28;20121;-71
2021/08/13 00:47:13;;;;;;;17.90;11.68;;;;;;;19.40;100.00;96212.88;1027085;28;20027;-71
2021/08/13 00:47:44;;;;;;;17.70;11.15;;;;;;;19.37;100.00;96210.06;1035059;28;20045;-71
2021/08/13 00:48:14;;;;;;;15.15;10.82;;;;;;;19.39;100.00;96219.31;1031037;28;20178;-70
2021/08/13 00:48:45;;;;;;;16.05;12.00;;;;;;;19.39;100.00;96211.31;1027073;28;20807;-71
2021/08/13 00:49:15;;;;;;;17.23;12.13;;;;;;;19.35;100.00;96213.03;1030575;28;20038;-71
2021/08/13 00:49:46;;;;;;;23.42;12.20;;;;;;;19.40;100.00;96220.88;1026958;28;20026;-71
2021/08/13 00:50:16;;;;;;;14.93;12.18;;;;;;;19.38;100.00;96217.72;1023085;28;20031;-71
2021/08/13 00:50:47;;;;;;;16.48;11.70;;;;;;;19.40;100.00;96228.84;1024213;28;20058;-71
2021/08/13 00:51:17;;;;;;;17.25;10.98;;;;;;;19.41;100.00;96233.06;1027081;28;20126;-71
2021/08/13 00:51:48;;;;;;;15.90;11.05;;;;;;;19.40;100.00;96230.72;1026267;28;20030;-71
2021/08/13 00:52:18;;;;;;;22.00;12.40;;;;;;;19.40;100.00;96241.38;1030684;28;20372;-70
2021/08/13 00:52:49;;;;;;;17.92;11.90;;;;;;;19.40;100.00;96242.16;1030994;28;20109;-70
2021/08/13 00:53:20;;;;;;;14.85;11.45;;;;;;;19.35;100.00;96249.47;1031016;28;20070;-70
2021/08/13 00:53:50;;;;;;;21.40;10.95;;;;;;;19.28;100.00;96249.91;1030768;28;20467;-71
2021/08/13 00:54:21;;;;;;;16.85;11.60;;;;;;;19.21;100.00;96249.56;1030870;28;20030;-68
2021/08/13 00:54:52;;;;;;;18.15;11.82;;;;;;;19.17;100.00;96262.69;1027436;28;20721;-70
2021/08/13 00:55:22;;;;;;;17.52;11.32;;;;;;;18.74;100.00;96209.25;1034895;28;20133;-70
2021/08/13 00:55:53;;;;;;;19.88;12.10;;;;;;;19.02;100.00;96257.78;1026229;28;20034;-70
2021/08/13 00:56:24;;;;;;;18.45;12.20;;;;;;;18.99;100.00;96261.03;1030949;28;20066;-71
2021/08/13 00:56:54;;;;;;;21.52;11.98;;;;;;;18.95;100.00;96266.19;1030853;28;20018;-71
2021/08/13 00:57:25;;;;;;;18.45;11.95;;;;;;;18.81;100.00;96268.09;1022538;28;20461;-71
2021/08/13 00:57:55;;;;;;;17.65;11.98;;;;;;;18.79;100.00;96271.06;1030693;28;20477;-70
2021/08/13 00:58:26;;;;;;;16.27;11.10;;;;;;;18.76;100.00;96278.88;1030986;28;20487;-71
2021/08/13 00:58:56;;;;;;;18.33;12.63;;;;;;;18.70;100.00;96282.69;1030895;28;20503;-71
2021/08/13 00:59:26;;;;;;;19.30;12.32;;;;;;;18.72;100.00;96285.88;1026156;28;20436;-70
2021/08/13 00:59:57;;;;;;;19.48;12.50;;;;;;;18.68;100.00;96275.03;1023053;28;20035;-71
2021/08/13 01:00:27;;;;;;;22.45;12.43;;;;;;;18.57;100.00;96274.44;1030990;28;20022;-71
2021/08/13 01:00:58;;;;;;;22.83;12.15;;;;;;;18.63;100.00;96279.66;1026082;28;20026;-71
2021/08/13 01:01:28;;;;;;;15.65;12.30;;;;;;;18.57;100.00;96269.13;1026861;28;20018;-71
2021/08/13 01:01:59;;;;;;;19.30;12.75;;;;;;;18.56;100.00;96272.88;1026132;28;20109;-71
2021/08/13 01:02:29;;;;;;;23.58;12.48;;;;;;;18.51;100.00;96270.34;1026815;28;20030;-70
2021/08/13 01:03:00;;;;;;;20.95;11.63;;;;;;;18.49;100.00;96267.19;1026870;28;20034;-71
2021/08/13 01:03:30;;;;;;;21.42;11.65;;;;;;;18.50;100.00;96268.75;1030938;28;20022;-71
2021/08/13 01:04:01;;;;;;;21.17;12.15;;;;;;;18.49;100.00;96267.19;1030841;28;20025;-70
2021/08/13 01:04:31;;;;;;;20.98;12.20;;;;;;;18.49;100.00;96263.75;1032227;28;20032;-70
2021/08/13 01:05:01;;;;;;;22.95;11.85;;;;;;;18.48;100.00;96265.63;1030877;28;20026;-67
2021/08/13 01:05:32;;;;;;;17.67;12.02;;;;;;;18.47;100.00;96263.25;1031110;28;20022;-71
2021/08/13 01:06:03;;;;;;;16.15;11.77;;;;;;;18.46;100.00;96262.47;1036301;28;20068;-71
2021/08/13 01:06:33;;;;;;;17.83;12.93;;;;;;;18.45;100.00;96255.59;1038634;28;20030;-71
2021/08/13 01:07:07;;;;;;;18.00;12.05;;;;;;;18.45;100.00;96266.22;1035172;28;20038;-70
2021/08/13 01:07:38;;;;;;;18.92;12.68;;;;;;;18.37;100.00;96246.44;1038629;28;20639;-71
2021/08/13 01:08:08;;;;;;;17.27;12.88;;;;;;;18.35;100.00;96245.97;1031747;28;20026;-71
2021/08/13 01:08:39;;;;;;;21.52;12.23;;;;;;;18.33;100.00;96248.13;1030803;28;20471;-71
2021/08/13 01:09:10;;;;;;;22.05;11.77;;;;;;;18.33;100.00;96244.69;1030940;28;20018;-71
2021/08/13 01:09:40;;;;;;;18.95;11.30;;;;;;;18.36;100.00;96257.41;1027942;28;20033;-70
2021/08/13 01:10:11;;;;;;;20.08;12.25;;;;;;;18.36;100.00;96257.41;1015101;29;20039;-70
2021/08/13 01:11:09;;;;;;;20.02;12.43;;;;;;;18.34;100.00;96248.91;1018928;29;20055;-71
2021/08/13 01:11:50;;;;;;;23.73;12.98;;;;;;;18.36;100.00;96266.16;1022524;28;20020;-68
2021/08/13 01:12:41;;;;;;;17.25;12.10;;;;;;;18.35;100.00;96266.47;1032590;28;20018;-70
2021/08/13 01:13:14;;;;;;;21.75;11.73;;;;;;;18.32;100.00;96261.75;1030225;28;20034;-70
2021/08/13 01:13:55;;;;;;;26.08;11.88;;;;;;;18.29;100.00;96262.34;1026899;28;20033;-70
2021/08/13 01:14:40;;;;;;;16.52;11.57;;;;;;;18.29;100.00;96259.69;1030395;28;20027;-69
2021/08/13 01:15:12;;;;;;;20.67;12.63;;;;;;;18.25;100.00;96256.84;1030672;28;20030;-70
2021/08/13 01:15:45;;;;;;;18.35;12.13;;;;;;;18.19;100.00;96251.94;1026149;28;20033;-71
2021/08/13 01:16:16;;;;;;;22.42;12.50;;;;;;;18.21;100.00;96257.72;1026466;28;20381;-71
2021/08/13 01:16:47;;;;;;;23.15;12.88;;;;;;;18.19;100.00;96263.34;1030637;28;20070;-71
2021/08/13 01:17:20;;;;;;;24.95;13.25;;;;;;;18.18;100.00;96261.00;1030850;28;20621;-70
2021/08/13 01:17:57;;;;;;;22.98;12.32;;;;;;;18.16;100.00;96257.84;1019574;29;20693;-71
2021/08/13 01:18:31;;;;;;;19.15;12.77;;;;;;;18.08;100.00;96252.13;1022337;29;20046;-71
2021/08/13 01:19:08;;;;;;;20.25;12.52;;;;;;;18.12;100.00;96258.44;1018845;29;20023;-70
2021/08/13 01:19:48;;;;;;;18.38;11.95;;;;;;;18.11;100.00;96251.53;1020189;28;20031;-70
2021/08/13 01:20:56;;;;;;;23.77;12.95;;;;;;;18.09;100.00;96256.34;1022944;29;20496;-71
2021/08/13 01:21:41;;;;;;;20.75;12.40;;;;;;;18.00;100.00;96250.16;1035198;28;20040;-69
2021/08/13 01:22:21;;;;;;;17.63;11.93;;;;;;;17.95;100.00;96247.63;1030623;28;20026;-68
2021/08/13 01:22:55;;;;;;;18.48;12.57;;;;;;;18.00;100.00;96252.81;1030715;28;20018;-70
2021/08/13 01:23:29;;;;;;;16.13;12.15;;;;;;;17.99;100.00;96253.91;1030571;28;20080;-71
2021/08/13 01:24:07;;;;;;;21.35;13.13;;;;;;;17.98;100.00;96260.31;1031533;28;20650;-70
2021/08/13 01:24:41;;;;;;;20.55;12.57;;;;;;;18.00;100.00;96257.34;1030677;28;20514;-70
2021/08/13 01:25:12;;;;;;;18.27;12.20;;;;;;;17.98;100.00;96257.66;1030593;28;20018;-71
2021/08/13 01:25:43;;;;;;;18.30;11.82;;;;;;;17.95;100.00;96252.94;1030846;28;20034;-70
2021/08/13 01:26:14;;;;;;;19.58;12.77;;;;;;;17.92;100.00;96247.44;1026633;28;20029;-72
2021/08/13 01:26:53;;;;;;;15.75;11.70;;;;;;;17.94;100.00;96250.56;1031153;28;20018;-70
2021/08/13 01:27:27;;;;;;;17.42;11.85;;;;;;;17.94;100.00;96250.56;1026898;28;20129;-71
2021/08/13 01:27:58;;;;;;;18.23;12.23;;;;;;;17.88;100.00;96237.41;1030466;28;20029;-70
2021/08/13 01:28:35;;;;;;;18.10;12.10;;;;;;;17.93;100.00;96249.78;1022764;29;20102;-70
2021/08/13 01:29:29;;;;;;;18.52;11.98;;;;;;;17.92;100.00;96253.53;1018769;29;20497;-71
2021/08/13 01:30:07;;;;;;;19.20;12.15;;;;;;;17.88;100.00;96252.56;1025308;28;20105;-71
2021/08/13 01:30:38;;;;;;;17.95;11.90;;;;;;;17.87;100.00;96250.97;1023369;28;20034;-71
2021/08/13 01:31:15;;;;;;;19.85;12.32;;;;;;;17.83;100.00;96242.03;1022622;29;20500;-71
2021/08/13 01:32:12;;;;;;;17.85;12.38;;;;;;;17.82;100.00;96251.88;1025188;28;20571;-71
2021/08/13 01:32:50;;;;;;;22.85;12.15;;;;;;;17.82;100.00;96253.72;1018887;29;20035;-71
2021/08/13 01:33:20;;;;;;;18.00;12.20;;;;;;;17.81;100.00;96244.22;1017728;28;20510;-71
2021/08/13 01:33:55;;;;;;;29.50;13.25;;;;;;;17.79;100.00;96246.38;1021564;28;20032;-70
2021/08/13 01:34:26;;;;;;;18.15;12.30;;;;;;;17.77;100.00;96257.28;1022973;29;20647;-71
2021/08/13 01:35:28;;;;;;;19.15;12.75;;;;;;;17.75;100.00;96269.25;1026668;28;20030;-71
2021/08/13 01:36:01;;;;;;;25.88;12.80;;;;;;;17.72;100.00;96256.56;1025423;28;20047;-70
2021/08/13 01:36:31;;;;;;;23.27;13.07;;;;;;;17.72;100.00;96264.53;1031725;28;20032;-71
2021/08/13 01:37:02;;;;;;;18.23;12.80;;;;;;;17.71;100.00;96265.63;1030636;28;20519;-70
2021/08/13 01:37:33;;;;;;;19.40;12.80;;;;;;;17.67;100.00;96262.72;1030637;28;20423;-71
2021/08/13 01:38:23;;;;;;;21.73;12.68;;;;;;;17.71;100.00;96270.91;1030929;28;20014;-71
2021/08/13 01:38:54;;;;;;;19.73;12.90;;;;;;;17.67;100.00;96268.84;1029368;28;20029;-70
2021/08/13 01:39:27;;;;;;;19.20;12.48;;;;;;;17.65;100.00;96265.69;1022748;29;20038;-71
2021/08/13 01:39:59;;;;;;;21.02;12.85;;;;;;;17.63;100.00;96261.75;1027524;28;20033;-69
2021/08/13 01:40:29;;;;;;;20.00;13.00;;;;;;;17.65;100.00;96271.00;1026578;28;20026;-70
2021/08/13 01:41:01;;;;;;;19.23;11.65;;;;;;;17.65;100.00;96278.19;1018983;29;20023;-71
2021/08/13 01:41:33;;;;;;;19.15;12.60;;;;;;;17.68;100.00;96273.06;1027106;28;20026;-70
2021/08/13 01:42:04;;;;;;;19.75;12.93;;;;;;;17.68;100.00;96275.72;1026372;28;20030;-68
2021/08/13 01:42:35;;;;;;;20.92;12.55;;;;;;;17.70;100.00;96274.63;1026891;28;20020;-68
2021/08/13 01:43:05;;;;;;;30.35;13.27;;;;;;;17.71;100.00;96279.66;1022958;29;20019;-70
2021/08/13 01:43:38;;;;;;;18.38;12.45;;;;;;;17.71;100.00;96273.56;1026784;28;20026;-71
2021/08/13 01:44:08;;;;;;;21.88;13.15;;;;;;;17.72;100.00;96277.78;1030488;28;20149;-70
2021/08/13 01:44:39;;;;;;;21.23;13.13;;;;;;;17.72;100.00;96280.44;1030056;28;20026;-71
2021/08/13 01:45:10;;;;;;;21.23;13.45;;;;;;;17.70;100.00;96277.28;1028440;28;20029;-69
2021/08/13 01:45:40;;;;;;;23.52;13.07;;;;;;;17.71;100.00;96276.22;1024194;28;20027;-70
2021/08/13 01:46:12;;;;;;;26.05;13.35;;;;;;;17.70;100.00;96279.94;1026541;28;20026;-70
2021/08/13 01:46:42;;;;;;;21.00;12.60;;;;;;;17.71;100.00;96278.88;1018594;29;20078;-70
2021/08/13 01:47:13;;;;;;;19.15;12.77;;;;;;;17.63;100.00;96262.53;1022255;28;20023;-71
2021/08/13 01:47:43;;;;;;;18.20;12.55;;;;;;;17.65;100.00;96264.91;1022654;28;20023;-70
2021/08/13 01:48:14;;;;;;;17.02;12.70;;;;;;;17.70;100.00;96266.69;1022519;28;20027;-71
2021/08/13 01:48:44;;;;;;;19.02;12.25;;;;;;;17.78;100.00;96279.31;1018626;29;20383;-70
2021/08/13 01:49:15;;;;;;;22.13;12.80;;;;;;;17.81;100.00;96273.41;1023148;28;20652;-70
2021/08/13 01:49:46;;;;;;;16.75;12.95;;;;;;;17.80;100.00;96266.50;1022361;29;20027;-71
2021/08/13 01:50:17;;;;;;;19.73;12.50;;;;;;;17.83;100.00;96273.88;1026604;28;20749;-70
2021/08/13 01:50:47;;;;;;;19.02;13.13;;;;;;;17.81;100.00;96274.19;1032014;28;20459;-71
2021/08/13 01:51:18;;;;;;;21.77;12.57;;;;;;;17.83;100.00;96276.53;1026559;28;20035;-71
2021/08/13 01:51:49;;;;;;;17.55;12.55;;;;;;;17.84;100.00;96276.25;1025723;28;20058;-70
2021/08/13 01:52:20;;;;;;;18.33;12.27;;;;;;;17.86;100.00;96276.72;1022163;28;20031;-70
2021/08/13 01:52:50;;;;;;;16.33;12.05;;;;;;;17.84;100.00;96264.81;1026989;28;20029;-71
2021/08/13 01:53:21;;;;;;;20.52;13.25;;;;;;;17.89;100.00;96270.06;1026571;28;20030;-70
2021/08/13 01:53:52;;;;;;;19.83;12.88;;;;;;;17.88;100.00;96263.97;1026483;28;20081;-71
2021/08/13 01:54:22;;;;;;;22.92;13.00;;;;;;;17.90;100.00;96269.75;1018622;29;20173;-70
2021/08/13 01:54:53;;;;;;;18.30;12.55;;;;;;;17.84;100.00;96265.63;1026510;28;20031;-71
2021/08/13 01:55:23;;;;;;;17.30;13.00;;;;;;;17.76;100.00;96255.69;1030403;28;20587;-67
2021/08/13 01:55:54;;;;;;;16.85;13.05;;;;;;;17.83;100.00;96261.38;1026299;28;20570;-71
2021/08/13 01:56:26;;;;;;;24.02;13.15;;;;;;;17.87;100.00;96272.22;1022490;28;20031;-71
2021/08/13 01:56:56;;;;;;;26.02;12.60;;;;;;;17.86;100.00;96270.63;1030436;28;20121;-71
2021/08/13 01:57:27;;;;;;;21.70;13.25;;;;;;;17.84;100.00;96268.28;1029873;28;20022;-70
2021/08/13 01:57:58;;;;;;;17.48;12.82;;;;;;;17.82;100.00;96267.78;1026662;28;20018;-71
2021/08/13 01:58:28;;;;;;;18.33;12.98;;;;;;;17.84;100.00;96270.13;1020759;29;20019;-70
2021/08/13 01:58:59;;;;;;;25.80;13.50;;;;;;;17.79;100.00;96270.25;1017316;29;20031;-70
2021/08/13 01:59:33;;;;;;;16.67;12.98;;;;;;;17.79;100.00;96276.34;1026183;28;20073;-71
2021/08/13 02:00:04;;;;;;;21.48;13.00;;;;;;;17.79;100.00;96276.34;1023688;28;20055;-70
2021/08/13 02:00:35;;;;;;;20.50;12.60;;;;;;;17.78;100.00;96274.78;1026974;28;20023;-70
2021/08/13 02:01:05;;;;;;;24.73;12.38;;;;;;;17.77;100.00;96278.53;1030540;28;20033;-71
2021/08/13 02:01:36;;;;;;;21.30;12.50;;;;;;;17.68;100.00;96270.41;1034971;28;20022;-71
2021/08/13 02:02:06;;;;;;;16.98;12.85;;;;;;;17.71;100.00;96270.91;1034003;28;20033;-71
2021/08/13 02:02:37;;;;;;;32.42;13.88;;;;;;;17.68;100.00;96267.75;1026378;28;20027;-70
2021/08/13 02:03:07;;;;;;;21.23;12.70;;;;;;;17.70;100.00;96278.06;1030396;28;20053;-71
2021/08/13 02:03:38;;;;;;;16.10;12.88;;;;;;;17.68;100.00;96280.25;1022466;28;20095;-70
2021/08/13 02:04:09;;;;;;;19.77;13.30;;;;;;;17.68;100.00;96280.25;1030511;28;20014;-70
2021/08/13 02:04:41;;;;;;;21.10;12.63;;;;;;;17.67;100.00;96282.13;1026407;28;20023;-71
2021/08/13 02:05:11;;;;;;;19.17;13.07;;;;;;;17.65;100.00;96286.16;1029609;28;20026;-70
2021/08/13 02:05:42;;;;;;;17.45;12.57;;;;;;;17.64;100.00;96287.25;1030488;28;20031;-70
2021/08/13 02:06:12;;;;;;;19.23;13.65;;;;;;;17.63;100.00;96286.44;1022601;29;20437;-71
2021/08/13 02:06:43;;;;;;;18.00;13.38;;;;;;;17.64;100.00;96285.38;1031760;28;20359;-70
2021/08/13 02:07:13;;;;;;;24.20;13.45;;;;;;;17.65;100.00;96286.94;1021039;29;20851;-71
2021/08/13 02:07:44;;;;;;;20.15;13.10;;;;;;;17.62;100.00;96276.91;1025292;28;20034;-70
2021/08/13 02:08:14;;;;;;;20.77;13.30;;;;;;;17.68;100.00;96282.91;1022642;29;20023;-70
2021/08/13 02:08:44;;;;;;;24.13;13.98;;;;;;;17.68;100.00;96278.38;1022471;28;20024;-71
2021/08/13 02:09:15;;;;;;;20.85;12.35;;;;;;;17.68;100.00;96275.72;1026229;28;20027;-70
2021/08/13 02:09:46;;;;;;;17.88;13.35;;;;;;;17.79;100.00;96283.53;1026478;28;20035;-71
2021/08/13 02:10:16;;;;;;;21.27;13.13;;;;;;;17.77;100.00;96272.41;1022435;29;20050;-70
2021/08/13 02:10:49;;;;;;;20.48;13.32;;;;;;;17.84;100.00;96280.75;1021970;28;20501;-70
2021/08/13 02:11:19;;;;;;;18.95;13.13;;;;;;;17.85;100.00;96271.72;1026509;28;20050;-71
2021/08/13 02:11:50;;;;;;;17.17;12.77;;;;;;;17.84;100.00;96270.13;1022620;28;20019;-71
2021/08/13 02:12:20;;;;;;;19.30;13.00;;;;;;;17.84;100.00;96262.19;1026718;28;20030;-70
2021/08/13 02:12:50;;;;;;;21.15;13.23;;;;;;;17.85;100.00;96267.22;1022656;28;20078;-70
2021/08/13 02:13:21;;;;;;;15.75;12.65;;;;;;;17.88;100.00;96273.78;1023486;28;20031;-71
2021/08/13 02:13:52;;;;;;;19.52;13.00;;;;;;;17.94;100.00;96266.50;1023310;29;20022;-71
2021/08/13 02:14:22;;;;;;;19.75;13.10;;;;;;;17.87;100.00;96262.41;1016437;29;20016;-70
2021/08/13 02:14:53;;;;;;;20.63;13.40;;;;;;;17.87;100.00;96274.88;1023201;29;20023;-70
2021/08/13 02:15:23;;;;;;;15.63;12.45;;;;;;;17.87;100.00;96277.50;1023406;29;20031;-70
2021/08/13 02:16:03;;;;;;;19.67;12.50;;;;;;;17.85;100.00;96275.16;1022792;29;20019;-69
2021/08/13 02:16:33;;;;;;;15.77;12.23;;;;;;;17.79;100.00;96265.72;1025803;28;20027;-71
2021/08/13 02:17:04;;;;;;;19.98;12.30;;;;;;;17.85;100.00;96274.38;1023171;28;20576;-70
2021/08/13 02:17:38;;;;;;;18.40;12.90;;;;;;;17.86;100.00;96274.06;1023251;29;20556;-71
2021/08/13 02:18:16;;;;;;;19.70;13.00;;;;;;;17.83;100.00;96271.22;1027386;28;20027;-70
2021/08/13 02:18:50;;;;;;;20.20;12.00;;;;;;;17.84;100.00;96272.78;1027352;28;20033;-71
2021/08/13 02:19:36;;;;;;;21.08;12.95;;;;;;;17.79;100.00;96270.25;1029086;28;20038;-73
2021/08/13 02:20:14;;;;;;;17.85;12.85;;;;;;;17.72;100.00;96265.31;1027395;28;20122;-70
2021/08/13 02:20:44;;;;;;;17.67;12.57;;;;;;;17.69;100.00;96257.94;1031245;28;20030;-70
2021/08/13 02:21:15;;;;;;;17.17;13.73;;;;;;;17.65;100.00;96256.94;1027043;28;20499;-70
2021/08/13 02:21:46;;;;;;;16.20;12.85;;;;;;;17.66;100.00;96266.47;1022671;29;20524;-70
2021/08/13 02:22:16;;;;;;;17.35;14.00;;;;;;;17.67;100.00;96268.03;1022921;29;20023;-70
2021/08/13 02:22:47;;;;;;;20.10;12.68;;;;;;;17.66;100.00;96277.09;1023051;28;20485;-71
2021/08/13 02:23:19;;;;;;;17.23;13.30;;;;;;;17.64;100.00;96271.31;1027181;28;20428;-71
2021/08/13 02:23:49;;;;;;;16.50;13.38;;;;;;;17.55;100.00;96265.88;1027362;28;20022;-70
2021/08/13 02:24:20;;;;;;;19.42;12.63;;;;;;;17.59;100.00;96276.69;1023414;29;20576;-70
2021/08/13 02:24:50;;;;;;;18.52;14.15;;;;;;;17.56;100.00;96280.72;1023151;28;20382;-70
2021/08/13 02:25:21;;;;;;;22.00;13.52;;;;;;;17.56;100.00;96278.06;1023147;28;20074;-70
2021/08/13 02:25:51;;;;;;;18.65;11.90;;;;;;;17.58;100.00;96275.91;1023357;28;20497;-71